Time;durP1;ratioP1;P1;durP2;ratioP2;P2;SDS_P1;SDS_P2;PMS_P1;PMS_P2;Temp;Humidity;BMP_temperature;BMP_pressure;BME280_temperature;BME280_humidity;BME280_pressure;Samples;Min_cycle;Max_cycle;Signal;HPM_P1;HPM_P2
2023/09/24 00:02:11;;;;;;;7.90;1.73;;;;;;;13.44;100.00;100013.28;5022627;28;20032;-79
2023/09/24 00:04:37;;;;;;;8.35;1.70;;;;;;;13.43;100.00;100022.44;5072398;28;20110;-79
2023/09/24 00:07:02;;;;;;;8.57;1.80;;;;;;;13.41;100.00;100025.34;5038867;28;20033;-79
2023/09/24 00:09:28;;;;;;;15.88;2.47;;;;;;;13.37;100.00;100037.63;5072313;28;20036;-80
2023/09/24 00:11:54;;;;;;;10.82;2.05;;;;;;;13.36;100.00;100026.00;5039035;28;20158;-79
2023/09/24 00:14:20;;;;;;;10.52;1.85;;;;;;;13.22;100.00;100026.19;5055395;28;20043;-79
2023/09/24 00:16:46;;;;;;;8.02;1.92;;;;;;;12.97;100.00;100019.59;5059677;28;20028;-79
2023/09/24 00:19:13;;;;;;;14.43;2.22;;;;;;;12.87;100.00;100029.16;5062503;28;20074;-80
2023/09/24 00:21:38;;;;;;;13.80;2.47;;;;;;;12.76;100.00;100034.13;5079166;28;20512;-79
2023/09/24 00:24:05;;;;;;;13.38;2.60;;;;;;;12.64;100.00;100024.16;5062270;28;20032;-80
2023/09/24 00:26:31;;;;;;;16.42;2.28;;;;;;;12.57;100.00;100031.41;5045559;28;20054;-79
2023/09/24 00:28:56;;;;;;;12.30;2.30;;;;;;;12.51;100.00;100031.19;5061939;28;20490;-80
2023/09/24 00:31:25;;;;;;;9.27;2.22;;;;;;;12.44;100.00;100024.16;5062199;28;20436;-80
2023/09/24 00:33:52;;;;;;;10.60;2.13;;;;;;;12.43;100.00;100027.88;5078685;28;20071;-80
2023/09/24 00:36:18;;;;;;;13.95;1.85;;;;;;;12.47;100.00;100023.75;5045627;28;20068;-80
2023/09/24 00:38:44;;;;;;;9.88;1.98;;;;;;;12.43;100.00;100022.50;5062102;28;20447;-80
2023/09/24 00:41:09;;;;;;;12.43;2.60;;;;;;;12.44;100.00;100016.91;5061835;28;20028;-79
2023/09/24 00:43:36;;;;;;;9.73;2.30;;;;;;;12.42;100.00;100013.59;5061820;28;20039;-79
2023/09/24 00:46:04;;;;;;;15.77;2.97;;;;;;;12.33;100.00;100014.81;5078789;28;20029;-79
2023/09/24 00:48:31;;;;;;;10.52;2.63;;;;;;;12.38;100.00;100019.59;5062090;28;20078;-79
2023/09/24 00:50:58;;;;;;;16.45;2.35;;;;;;;12.39;100.00;100021.25;5062200;28;20039;-80
2023/09/24 00:53:31;;;;;;;11.45;2.70;;;;;;;12.41;100.00;100024.56;5061513;28;20028;-79
2023/09/24 00:55:57;;;;;;;;;;;;;;;12.47;100.00;100029.97;5046029;28;20039;-80
2023/09/24 00:58:24;;;;;;;12.27;1.98;;;;;;;12.47;100.00;100027.28;5045526;28;20274;-79
2023/09/24 01:00:54;;;;;;;15.30;3.67;;;;;;;12.52;100.00;100023.97;5078551;28;20031;-79
2023/09/24 01:03:22;;;;;;;13.90;2.60;;;;;;;12.60;100.00;100023.75;5061670;28;20409;-79
2023/09/24 01:05:50;;;;;;;13.73;2.47;;;;;;;12.67;100.00;100024.56;5078631;28;20039;-80
2023/09/24 01:08:18;;;;;;;21.75;3.15;;;;;;;12.76;100.00;100023.34;5062048;28;20093;-79
2023/09/24 01:10:46;;;;;;;12.57;3.40;;;;;;;12.77;100.00;100014.19;5045273;28;20040;-79
2023/09/24 01:13:12;;;;;;;10.25;2.95;;;;;;;12.86;100.00;100028.31;5061849;28;20059;-80
2023/09/24 01:15:38;;;;;;;12.00;2.88;;;;;;;12.89;100.00;100011.72;5078363;28;20038;-79
2023/09/24 01:18:03;;;;;;;11.23;2.38;;;;;;;12.91;100.00;100011.50;5045095;28;20039;-79
2023/09/24 01:20:31;;;;;;;14.73;3.20;;;;;;;12.90;100.00;100007.97;5045254;28;20056;-79
2023/09/24 01:22:59;;;;;;;16.33;3.42;;;;;;;12.93;100.00;100004.03;5078414;28;20475;-79
2023/09/24 01:25:25;;;;;;;23.60;4.25;;;;;;;12.97;100.00;100002.56;5077990;28;20062;-80
2023/09/24 01:27:50;;;;;;;15.35;3.13;;;;;;;12.98;100.00;99996.13;5042769;28;20074;-79
2023/09/24 01:30:17;;;;;;;13.07;2.88;;;;;;;12.94;100.00;99982.25;5041425;28;20070;-80
2023/09/24 01:32:45;;;;;;;18.33;3.10;;;;;;;12.96;100.00;99992.81;5075082;28;20067;-80
2023/09/24 01:35:11;;;;;;;18.52;3.58;;;;;;;12.97;100.00;99986.38;5074867;28;20028;-79
2023/09/24 01:37:38;;;;;;;16.55;3.13;;;;;;;12.96;100.00;99996.31;5058550;28;20032;-79
2023/09/24 01:40:20;;;;;;;19.75;3.60;;;;;;;12.98;100.00;99998.81;5074959;28;20030;-80
2023/09/24 01:42:46;;;;;;;22.98;3.85;;;;;;;13.05;100.00;100001.53;5043781;28;20029;-79
2023/09/24 01:45:13;;;;;;;16.05;2.88;;;;;;;13.06;100.00;100004.00;5041626;28;20029;-80
2023/09/24 01:47:39;;;;;;;10.73;3.05;;;;;;;13.11;100.00;100006.06;5074964;28;20030;-80
2023/09/24 01:50:08;;;;;;;14.05;2.60;;;;;;;13.17;100.00;100000.66;5041679;28;20455;-80
2023/09/24 01:52:35;;;;;;;18.42;2.50;;;;;;;13.26;100.00;100006.69;5058647;28;20036;-80
2023/09/24 01:55:01;;;;;;;18.27;2.85;;;;;;;13.29;100.00;100006.28;5057866;28;20112;-80
2023/09/24 01:57:28;;;;;;;16.65;3.45;;;;;;;13.33;100.00;100012.06;5075556;28;20105;-80
2023/09/24 01:59:56;;;;;;;21.17;4.15;;;;;;;13.36;100.00;100007.09;5057987;28;20029;-80
2023/09/24 02:02:22;;;;;;;14.45;3.17;;;;;;;13.37;100.00;99995.25;5074419;28;20115;-80
2023/09/24 02:04:48;;;;;;;19.52;4.60;;;;;;;13.39;100.00;99978.84;5057826;28;20070;-81
2023/09/24 02:07:15;;;;;;;25.27;3.75;;;;;;;13.41;100.00;99982.94;5058056;28;20119;-80
2023/09/24 02:09:41;;;;;;;24.05;3.78;;;;;;;13.40;100.00;99977.78;5074355;28;20063;-80
2023/09/24 02:12:09;;;;;;;20.45;4.45;;;;;;;13.38;100.00;99972.59;5074317;28;20082;-79
2023/09/24 02:14:34;;;;;;;21.42;3.92;;;;;;;13.41;100.00;99977.56;5057846;28;20463;-79
2023/09/24 02:17:00;;;;;;;18.90;4.13;;;;;;;13.48;100.00;99979.41;5057627;28;20078;-80
2023/09/24 02:19:26;;;;;;;20.77;3.42;;;;;;;13.50;100.00;99970.06;5057504;28;20123;-80
2023/09/24 02:21:52;;;;;;;21.90;4.28;;;;;;;13.54;100.00;99971.28;5057738;28;20036;-80
2023/09/24 02:24:18;;;;;;;14.45;3.10;;;;;;;13.52;100.00;99967.97;5056955;28;20472;-80
2023/09/24 02:26:44;;;;;;;26.10;4.28;;;;;;;13.58;100.00;99977.91;5041144;28;20094;-80
2023/09/24 02:29:10;;;;;;;18.75;3.13;;;;;;;13.61;100.00;99973.97;5074897;28;20028;-80
2023/09/24 02:31:36;;;;;;;17.48;3.83;;;;;;;13.63;100.00;99978.09;5057275;28;20021;-81
2023/09/24 02:34:02;;;;;;;17.67;3.03;;;;;;;13.70;100.00;99979.94;5073609;28;20028;-80
2023/09/24 02:36:28;;;;;;;17.58;3.60;;;;;;;13.70;100.00;99975.34;5073893;28;20083;-80
2023/09/24 02:38:55;;;;;;;18.85;3.95;;;;;;;13.70;100.00;99988.03;5057011;28;20103;-80
2023/09/24 02:41:22;;;;;;;22.42;3.60;;;;;;;13.68;100.00;99963.97;5073303;28;20021;-80
2023/09/24 02:43:48;;;;;;;17.52;3.60;;;;;;;13.71;100.00;99965.41;5056827;28;20082;-80
2023/09/24 02:46:19;;;;;;;22.10;3.75;;;;;;;13.77;100.00;99969.94;5056947;28;20112;-81
2023/09/24 02:48:45;;;;;;;17.17;3.88;;;;;;;13.76;100.00;99962.84;5040892;28;20090;-80
2023/09/24 02:51:11;;;;;;;18.40;4.28;;;;;;;13.84;100.00;99959.94;5073402;28;20028;-80
2023/09/24 02:53:37;;;;;;;33.35;4.40;;;;;;;13.95;100.00;99964.63;5073182;28;20033;-80
2023/09/24 02:56:04;;;;;;;21.50;4.30;;;;;;;13.97;100.00;99965.25;5074450;28;20056;-80
2023/09/24 02:58:33;;;;;;;17.50;3.67;;;;;;;13.95;100.00;99964.63;5056922;28;20115;-80
2023/09/24 03:00:59;;;;;;;21.48;4.10;;;;;;;13.87;100.00;99958.66;5073213;28;20039;-81
2023/09/24 03:03:25;;;;;;;17.30;3.65;;;;;;;13.85;100.00;99957.00;5073976;28;20028;-81
2023/09/24 03:05:51;;;;;;;15.95;3.97;;;;;;;13.85;100.00;99958.88;5039837;28;20066;-80
2023/09/24 03:08:16;;;;;;;18.40;3.03;;;;;;;13.92;100.00;99956.97;5073003;28;20024;-81
2023/09/24 03:10:42;;;;;;;16.88;4.18;;;;;;;13.99;100.00;99957.72;5073022;28;20116;-81
2023/09/24 03:13:07;;;;;;;10.00;2.15;;;;;;;13.94;100.00;99951.31;5056424;28;20158;-80
2023/09/24 03:15:33;;;;;;;13.82;2.92;;;;;;;14.01;100.00;99944.00;5056398;28;20043;-81
2023/09/24 03:18:02;;;;;;;21.10;3.90;;;;;;;14.03;100.00;99939.22;5056571;28;20036;-81
2023/09/24 03:20:29;;;;;;;25.83;4.05;;;;;;;14.00;100.00;99936.97;5040416;28;20040;-81
2023/09/24 03:23:02;;;;;;;11.45;2.80;;;;;;;13.94;100.00;99937.81;5056237;28;20038;-81
2023/09/24 03:25:28;;;;;;;20.17;3.60;;;;;;;13.95;100.00;99934.91;5072885;28;20032;-81
2023/09/24 03:27:56;;;;;;;18.85;3.42;;;;;;;14.03;100.00;99947.34;5074377;28;20051;-81
2023/09/24 03:30:23;;;;;;;24.17;3.78;;;;;;;14.07;100.00;99935.03;5056266;28;20036;-81
2023/09/24 03:32:53;;;;;;;12.65;2.85;;;;;;;14.13;100.00;99928.75;5072702;28;20090;-81
2023/09/24 03:35:24;;;;;;;27.88;4.70;;;;;;;14.15;100.00;99934.75;5056602;28;20037;-82
2023/09/24 03:37:50;;;;;;;21.33;3.75;;;;;;;14.15;100.00;99921.22;5056078;28;20036;-81
2023/09/24 03:40:18;;;;;;;21.13;3.60;;;;;;;14.12;100.00;99918.97;5023477;28;20123;-81
2023/09/24 03:42:44;;;;;;;16.48;2.85;;;;;;;14.10;100.00;99917.53;5039339;28;20032;-81
2023/09/24 03:45:14;;;;;;;24.38;4.07;;;;;;;14.08;100.00;99910.47;5039696;28;20043;-80
2023/09/24 03:47:40;;;;;;;21.38;3.88;;;;;;;14.00;100.00;99913.47;5073193;28;20425;-81
2023/09/24 03:50:13;;;;;;;19.80;4.60;;;;;;;13.92;100.00;99902.91;5056067;28;20028;-81
2023/09/24 03:52:41;;;;;;;22.77;3.90;;;;;;;13.88;100.00;99907.09;5041210;28;20035;-81
2023/09/24 03:55:07;;;;;;;22.00;3.28;;;;;;;13.81;100.00;99893.63;5055982;28;20115;-81
2023/09/24 03:57:34;;;;;;;20.02;3.70;;;;;;;13.76;100.00;99892.59;5073745;28;20064;-81
2023/09/24 03:59:59;;;;;;;18.67;3.33;;;;;;;13.74;100.00;99900.94;5072306;28;20487;-81
2023/09/24 04:02:28;;;;;;;15.95;3.30;;;;;;;13.72;100.00;99888.69;5072298;28;20039;-83
2023/09/24 04:04:53;;;;;;;17.23;3.88;;;;;;;13.79;100.00;99889.50;5056038;28;20032;-81
2023/09/24 04:07:20;;;;;;;11.13;2.95;;;;;;;13.78;100.00;99891.34;5073419;28;20364;-81
2023/09/24 04:09:46;;;;;;;20.70;4.20;;;;;;;13.83;100.00;99891.53;5055467;28;20464;-81
2023/09/24 04:12:13;;;;;;;9.73;2.88;;;;;;;13.85;100.00;99885.91;5038818;28;20144;-81
2023/09/24 04:14:39;;;;;;;12.50;2.90;;;;;;;13.84;100.00;99889.66;5071932;28;20056;-82
2023/09/24 04:17:09;;;;;;;13.40;2.83;;;;;;;13.83;100.00;99888.00;5073316;28;20082;-81
2023/09/24 04:19:35;;;;;;;15.32;2.63;;;;;;;13.89;100.00;99897.09;5072261;28;20039;-82
2023/09/24 04:22:00;;;;;;;13.95;2.85;;;;;;;14.01;100.00;99898.06;5071522;28;20104;-81
2023/09/24 04:24:26;;;;;;;15.15;3.25;;;;;;;14.17;100.00;99905.63;5073506;28;20037;-81
2023/09/24 04:26:56;;;;;;;13.50;2.92;;;;;;;14.29;100.00;99895.75;5073642;28;20470;-81
2023/09/24 04:29:21;;;;;;;16.67;3.28;;;;;;;14.36;100.00;99890.28;5072014;28;20024;-81
2023/09/24 04:31:47;;;;;;;13.77;2.78;;;;;;;14.38;100.00;99892.78;5072407;28;20039;-81
2023/09/24 04:34:13;;;;;;;9.68;2.85;;;;;;;14.46;100.00;99892.47;5055497;28;20024;-81
2023/09/24 04:36:40;;;;;;;14.23;3.40;;;;;;;14.45;100.00;99893.53;5039288;28;20062;-81
2023/09/24 04:39:09;;;;;;;19.33;3.17;;;;;;;14.33;100.00;99893.44;5039085;28;20387;-81
2023/09/24 04:41:34;;;;;;;13.25;3.10;;;;;;;14.34;100.00;99900.47;5055528;28;20025;-81
2023/09/24 04:44:00;;;;;;;16.15;2.97;;;;;;;14.26;100.00;99892.66;5072065;28;20501;-81
2023/09/24 04:46:29;;;;;;;13.93;2.95;;;;;;;14.16;100.00;99893.16;5056043;28;20032;-81
2023/09/24 04:48:55;;;;;;;14.02;3.00;;;;;;;14.05;100.00;99894.72;5072782;28;20051;-81
2023/09/24 04:51:20;;;;;;;6.63;1.55;;;;;;;14.00;100.00;99899.13;5071486;28;20020;-81
2023/09/24 04:53:46;;;;;;;16.90;2.60;;;;;;;14.03;100.00;99896.78;5071959;28;20035;-80
2023/09/24 04:56:11;;;;;;;15.73;2.50;;;;;;;14.02;100.00;99908.63;5073090;28;20028;-81
2023/09/24 04:58:38;;;;;;;9.35;2.42;;;;;;;14.03;100.00;99898.69;5071926;28;20463;-81
2023/09/24 05:01:07;;;;;;;15.60;3.42;;;;;;;13.97;100.00;99903.09;5071776;28;20038;-81
2023/09/24 05:03:35;;;;;;;9.98;2.25;;;;;;;13.94;100.00;99906.19;5073653;28;20032;-81
2023/09/24 05:06:03;;;;;;;8.23;2.97;;;;;;;14.02;100.00;99913.22;5075402;28;20103;-81
2023/09/24 05:08:29;;;;;;;4.80;1.55;;;;;;;14.05;100.00;99916.34;5075666;28;20062;-81
2023/09/24 05:10:54;;;;;;;9.90;2.75;;;;;;;14.07;100.00;99908.00;5075434;28;20025;-81
2023/09/24 05:13:23;;;;;;;15.50;3.65;;;;;;;13.99;100.00;99911.78;5075642;28;20071;-81
2023/09/24 05:15:54;;;;;;;21.15;4.63;;;;;;;13.93;100.00;99901.84;5075859;28;20486;-80
2023/09/24 05:18:23;;;;;;;15.82;3.05;;;;;;;13.85;100.00;99904.81;5059048;28;20028;-80
2023/09/24 05:20:49;;;;;;;16.65;2.97;;;;;;;13.82;100.00;99894.47;5042191;28;20028;-82
2023/09/24 05:23:14;;;;;;;17.23;3.92;;;;;;;13.82;100.00;99900.69;5041807;28;20569;-81
2023/09/24 05:25:41;;;;;;;16.27;2.83;;;;;;;13.73;100.00;99898.44;5075049;28;20038;-81
2023/09/24 05:28:06;;;;;;;14.93;3.63;;;;;;;13.74;100.00;99894.72;5042310;28;20471;-81
2023/09/24 05:30:32;;;;;;;6.45;2.63;;;;;;;13.80;100.00;99901.94;5074898;28;20077;-81
2023/09/24 05:32:57;;;;;;;15.68;2.60;;;;;;;13.72;100.00;99886.81;5075201;28;20056;-82
2023/09/24 05:35:23;;;;;;;17.02;2.28;;;;;;;13.72;100.00;99886.00;5058338;28;20376;-81
2023/09/24 05:37:49;;;;;;;11.07;2.40;;;;;;;13.80;100.00;99888.44;5058292;28;20089;-82
2023/09/24 05:40:15;;;;;;;15.95;2.88;;;;;;;13.86;100.00;99879.44;5058631;28;20032;-81
2023/09/24 05:42:41;;;;;;;20.67;4.35;;;;;;;13.85;100.00;99875.91;5075050;28;20028;-81
2023/09/24 05:45:08;;;;;;;9.68;3.35;;;;;;;13.85;100.00;99880.50;5058237;28;20028;-81
2023/09/24 05:47:33;;;;;;;12.45;2.85;;;;;;;13.74;100.00;99878.50;5041956;28;20055;-81
2023/09/24 05:50:02;;;;;;;20.23;4.22;;;;;;;13.76;100.00;99881.78;5076077;28;20379;-81
2023/09/24 05:52:27;;;;;;;19.95;3.45;;;;;;;13.74;100.00;99881.22;5042011;28;20036;-81
2023/09/24 05:54:53;;;;;;;12.82;2.90;;;;;;;13.73;100.00;99868.72;5074390;28;20086;-81
2023/09/24 05:57:19;;;;;;;14.05;2.58;;;;;;;13.81;100.00;99873.88;5057801;28;20128;-81
2023/09/24 05:59:44;;;;;;;14.48;3.05;;;;;;;13.79;100.00;99866.00;5074937;28;20438;-81
2023/09/24 06:02:10;;;;;;;13.25;2.42;;;;;;;13.67;100.00;99872.31;5074769;28;20032;-81
2023/09/24 06:04:36;;;;;;;9.80;2.90;;;;;;;13.60;100.00;99870.50;5075827;28;20035;-83
2023/09/24 06:07:02;;;;;;;15.30;2.95;;;;;;;13.63;100.00;99880.84;5057490;28;20036;-81
2023/09/24 06:09:28;;;;;;;17.90;3.67;;;;;;;13.67;100.00;99872.31;5057417;28;20036;-80
2023/09/24 06:11:55;;;;;;;12.02;2.38;;;;;;;13.64;100.00;99873.56;5074322;28;20032;-81
2023/09/24 06:14:21;;;;;;;17.35;3.50;;;;;;;13.67;100.00;99861.50;5057416;28;20056;-81
2023/09/24 06:16:47;;;;;;;11.15;2.78;;;;;;;13.74;100.00;99865.00;5075259;28;20104;-82
2023/09/24 06:19:13;;;;;;;15.50;3.00;;;;;;;13.64;100.00;99851.97;5075135;28;20035;-81
2023/09/24 06:21:39;;;;;;;4.95;1.88;;;;;;;13.63;100.00;99853.84;5057606;28;20036;-81
2023/09/24 06:24:04;;;;;;;10.65;2.55;;;;;;;13.72;100.00;99856.28;5073406;28;20037;-81
2023/09/24 06:26:35;;;;;;;5.28;1.75;;;;;;;13.80;100.00;99845.19;5057433;28;20035;-82
2023/09/24 06:29:00;;;;;;;18.95;4.40;;;;;;;13.81;100.00;99846.84;5075319;28;20459;-82
2023/09/24 06:31:26;;;;;;;13.07;3.13;;;;;;;13.73;100.00;99852.53;5057021;28;20035;-82
2023/09/24 06:33:51;;;;;;;13.55;2.95;;;;;;;13.69;100.00;99849.44;5057027;28;20028;-82
2023/09/24 06:36:17;;;;;;;13.65;2.60;;;;;;;13.75;100.00;99851.25;5040331;28;20372;-82
2023/09/24 06:38:44;;;;;;;10.93;2.60;;;;;;;13.72;100.00;99848.19;5073897;28;20400;-81
2023/09/24 06:41:10;;;;;;;20.52;2.45;;;;;;;13.69;100.00;99845.91;5075398;28;20506;-82
2023/09/24 06:43:35;;;;;;;13.02;3.05;;;;;;;13.60;100.00;99840.78;5074119;28;20033;-81
2023/09/24 06:46:04;;;;;;;9.18;2.40;;;;;;;13.53;100.00;99829.19;5075006;28;20028;-82
2023/09/24 06:48:29;;;;;;;9.23;2.53;;;;;;;13.44;100.00;99833.16;5057284;28;20029;-81
2023/09/24 06:50:55;;;;;;;17.23;3.05;;;;;;;13.49;100.00;99835.22;5074694;28;20356;-82
2023/09/24 06:53:23;;;;;;;14.05;3.42;;;;;;;13.49;100.00;99822.56;5073593;28;20032;-82
2023/09/24 06:55:48;;;;;;;12.38;3.22;;;;;;;13.45;100.00;99809.72;5056875;28;20530;-82
2023/09/24 06:58:14;;;;;;;13.40;3.38;;;;;;;13.69;100.00;99810.78;5056790;28;20028;-82
2023/09/24 07:00:39;;;;;;;20.63;4.05;;;;;;;13.88;100.00;99804.41;5040435;28;20039;-81
2023/09/24 07:03:05;;;;;;;12.93;2.42;;;;;;;14.07;100.00;99807.97;5073544;28;20025;-82
2023/09/24 07:05:31;;;;;;;9.02;2.67;;;;;;;14.27;100.00;99813.22;5056666;28;20044;-82
2023/09/24 07:07:58;;;;;;;11.05;2.53;;;;;;;14.39;100.00;99827.63;5040242;28;20053;-82
2023/09/24 07:10:24;;;;;;;8.15;2.38;;;;;;;14.44;100.00;99813.44;5073362;28;20094;-82
2023/09/24 07:12:51;;;;;;;11.43;2.63;;;;;;;14.50;100.00;99807.13;5040032;28;20063;-82
2023/09/24 07:15:17;;;;;;;6.78;2.63;;;;;;;14.54;100.00;99812.97;5056064;28;20372;-82
2023/09/24 07:17:43;;;;;;;9.32;2.17;;;;;;;14.52;100.00;99807.72;5073085;28;20021;-82
2023/09/24 07:20:09;;;;;;;15.40;2.95;;;;;;;14.52;100.00;99805.88;5072718;28;20032;-82
2023/09/24 07:22:35;;;;;;;16.27;3.08;;;;;;;14.54;100.00;99808.38;5056599;28;20062;-81
2023/09/24 07:25:01;;;;;;;14.18;4.10;;;;;;;14.62;100.00;99804.53;5039645;28;20190;-81
2023/09/24 07:27:27;;;;;;;19.98;6.88;;;;;;;14.67;100.00;99808.22;5072344;28;20032;-81
2023/09/24 07:29:52;;;;;;;20.63;8.25;;;;;;;14.68;100.00;99790.91;5056249;28;20024;-81
2023/09/24 07:32:18;;;;;;;18.15;7.15;;;;;;;14.75;100.00;99790.03;5072472;28;20047;-81
2023/09/24 07:34:47;;;;;;;17.38;6.43;;;;;;;14.76;100.00;99780.84;5056080;28;20024;-82
2023/09/24 07:37:16;;;;;;;17.02;5.95;;;;;;;14.79;100.00;99765.00;5056073;28;20090;-82
2023/09/24 07:39:42;;;;;;;10.85;4.78;;;;;;;14.88;100.00;99760.09;5072715;28;20037;-81
2023/09/24 07:42:08;;;;;;;16.20;5.90;;;;;;;14.93;100.00;99758.34;5072821;28;20053;-82
2023/09/24 07:44:33;;;;;;;15.10;5.30;;;;;;;15.00;100.00;99758.25;5055840;28;20090;-82
2023/09/24 07:47:02;;;;;;;15.02;4.30;;;;;;;15.51;100.00;99747.94;5039440;28;20036;-84
2023/09/24 07:49:28;;;;;;;13.82;3.60;;;;;;;15.95;100.00;99753.88;5072254;28;20111;-83
2023/09/24 07:51:54;;;;;;;8.15;2.80;;;;;;;15.63;100.00;99743.34;5056010;28;20131;-83
2023/09/24 07:54:20;;;;;;;7.90;2.92;;;;;;;15.57;100.00;99741.59;5072498;28;20033;-82
2023/09/24 07:56:45;;;;;;;11.65;2.58;;;;;;;15.48;100.00;99741.09;5055574;28;20040;-82
2023/09/24 07:59:11;;;;;;;9.38;3.00;;;;;;;15.49;100.00;99737.31;5055854;28;20099;-82
2023/09/24 08:01:37;;;;;;;20.40;3.35;;;;;;;15.60;100.00;99733.81;5055988;28;20537;-83
2023/09/24 08:04:03;;;;;;;10.40;2.35;;;;;;;15.73;100.00;99740.91;5055670;28;20059;-84
2023/09/24 08:06:32;;;;;;;8.70;3.10;;;;;;;15.98;100.00;99753.41;5040037;28;20055;-83
2023/09/24 08:08:58;;;;;;;18.17;3.17;;;;;;;16.29;100.00;99765.78;5039169;28;20406;-84
2023/09/24 08:11:24;;;;;;;9.63;2.35;;;;;;;16.38;100.00;99774.38;5055263;28;20040;-83
2023/09/24 08:13:53;;;;;;;10.55;3.30;;;;;;;17.74;100.00;99774.56;5073231;28;20017;-84
2023/09/24 08:16:21;;;;;;;6.80;2.22;;;;;;;17.87;100.00;99781.59;5039889;28;20040;-83
2023/09/24 08:18:48;;;;;;;9.35;3.17;;;;;;;17.71;100.00;99793.28;5053911;28;20434;-83
2023/09/24 08:21:14;;;;;;;7.55;2.10;;;;;;;17.86;100.00;99801.72;5069974;28;20067;-84
2023/09/24 08:23:39;;;;;;;10.02;2.72;;;;;;;17.85;100.00;99799.25;5070253;28;20123;-84
2023/09/24 08:26:05;;;;;;;6.57;2.35;;;;;;;17.99;100.00;99798.69;5054264;28;20039;-83
2023/09/24 08:28:30;;;;;;;5.63;2.00;;;;;;;17.98;100.00;99793.47;5055017;28;20041;-83
2023/09/24 08:30:56;;;;;;;6.43;1.73;;;;;;;17.79;100.00;99790.19;5056656;28;20024;-83
2023/09/24 08:33:22;;;;;;;8.25;2.13;;;;;;;17.44;100.00;99793.91;5081738;28;20467;-82
2023/09/24 08:35:47;;;;;;;7.03;2.88;;;;;;;17.29;100.00;99777.31;5040242;28;20537;-83
2023/09/24 08:38:16;;;;;;;8.00;3.17;;;;;;;17.14;100.00;99775.13;5058059;28;20043;-83
2023/09/24 08:40:42;;;;;;;4.00;1.95;;;;;;;16.97;100.00;99772.38;5077144;28;20071;-82
2023/09/24 08:43:11;;;;;;;3.92;1.85;;;;;;;16.92;100.00;99766.84;5076172;28;20487;-82
2023/09/24 08:45:37;;;;;;;6.97;1.33;;;;;;;16.97;100.00;99764.25;5059446;28;20032;-82
2023/09/24 08:48:07;;;;;;;5.20;1.77;;;;;;;17.05;100.00;99752.97;5075686;28;20490;-83
2023/09/24 08:50:38;;;;;;;5.57;1.70;;;;;;;17.15;100.00;99755.06;5074943;28;20440;-80
2023/09/24 08:53:10;;;;;;;4.25;1.40;;;;;;;17.18;100.00;99751.06;5058808;28;20118;-81
2023/09/24 08:55:40;;;;;;;3.88;1.05;;;;;;;17.17;100.00;99749.38;5043255;28;20479;-80
2023/09/24 08:58:06;;;;;;;3.97;1.15;;;;;;;17.39;100.00;99752.25;5058551;28;20514;-80
2023/09/24 09:00:32;;;;;;;6.45;1.15;;;;;;;17.62;100.00;99737.66;5075835;28;20083;-79
2023/09/24 09:03:01;;;;;;;4.63;1.30;;;;;;;17.80;100.00;99746.41;5075161;28;20832;-80
2023/09/24 09:05:27;;;;;;;3.03;1.00;;;;;;;17.81;100.00;99739.09;5058859;28;20044;-80
2023/09/24 09:08:01;;;;;;;2.88;1.13;;;;;;;17.88;100.00;99720.69;5059294;28;20078;-80
2023/09/24 09:10:32;;;;;;;3.55;0.85;;;;;;;17.76;100.00;99711.81;5075546;28;20141;-79
2023/09/24 09:13:21;;;;;;;4.13;0.90;;;;;;;17.64;100.00;99695.56;5075115;28;20094;-80
2023/09/24 09:16:00;;;;;;;4.80;1.33;;;;;;;17.63;100.00;99679.53;5042754;28;20135;-80
2023/09/24 09:18:36;;;;;;;3.47;1.10;;;;;;;17.68;100.00;99685.84;5058417;28;20125;-81
2023/09/24 09:21:02;;;;;;;5.72;2.42;;;;;;;17.71;100.00;99682.63;5057803;28;20056;-79
2023/09/24 09:23:32;;;;;;;5.63;3.10;;;;;;;17.83;100.00;99663.50;5074272;28;20107;-80
2023/09/24 09:25:58;;;;;;;5.88;3.25;;;;;;;17.94;100.00;99673.50;5074276;28;20047;-79
2023/09/24 09:28:28;;;;;;;5.45;2.50;;;;;;;18.04;100.00;99677.41;5075361;28;20467;-79
2023/09/24 09:31:01;;;;;;;3.13;1.88;;;;;;;17.98;100.00;99668.34;5058224;28;20386;-79
2023/09/24 09:33:30;;;;;;;3.85;3.30;;;;;;;18.01;100.00;99681.44;5057403;28;20024;-80
2023/09/24 09:35:57;;;;;;;5.35;3.70;;;;;;;17.95;100.00;99675.13;5056914;28;20035;-80
2023/09/24 09:38:24;;;;;;;3.30;2.10;;;;;;;17.88;100.00;99663.59;5059546;28;20643;-79
2023/09/24 09:40:55;;;;;;;4.57;2.28;;;;;;;18.06;100.00;99643.44;5058630;28;20047;-80
2023/09/24 09:43:29;;;;;;;3.85;2.25;;;;;;;18.09;100.00;99655.72;5041900;28;20041;-79
2023/09/24 09:45:56;;;;;;;1.80;0.90;;;;;;;17.88;100.00;99655.44;5058653;28;20036;-80
2023/09/24 09:48:32;;;;;;;3.03;1.33;;;;;;;17.73;100.00;99657.91;5040965;28;20086;-79
2023/09/24 09:51:07;;;;;;;3.90;2.40;;;;;;;17.68;100.00;99655.13;5041585;28;20060;-79
2023/09/24 09:53:35;;;;;;;2.85;1.50;;;;;;;17.56;100.00;99647.06;5058662;28;20020;-79
2023/09/24 09:56:02;;;;;;;2.72;1.35;;;;;;;17.44;100.00;99640.88;5058014;28;20029;-80
2023/09/24 09:58:49;;;;;;;2.45;1.02;;;;;;;17.37;100.00;99630.19;5057678;28;20540;-80
2023/09/24 10:01:18;;;;;;;0.77;0.60;;;;;;;17.38;100.00;99636.44;5040904;28;20084;-78
2023/09/24 10:03:53;;;;;;;1.00;0.73;;;;;;;17.38;100.00;99628.28;5059241;28;20467;-80
2023/09/24 10:06:19;;;;;;;1.80;1.10;;;;;;;17.39;100.00;99621.81;5041131;28;20040;-78
2023/09/24 10:08:48;;;;;;;1.92;1.00;;;;;;;17.30;100.00;99626.81;5073891;28;20033;-79
2023/09/24 10:11:32;;;;;;;1.95;1.10;;;;;;;17.23;100.00;99620.75;5025093;28;20047;-78
2023/09/24 10:14:05;;;;;;;2.45;0.90;;;;;;;17.13;100.00;99610.53;5073990;28;20426;-78
2023/09/24 10:16:39;;;;;;;3.58;2.42;;;;;;;17.06;100.00;99596.28;5057484;28;20029;-79
2023/09/24 10:19:06;;;;;;;3.53;2.13;;;;;;;16.99;100.00;99595.63;5040108;28;20028;-79
2023/09/24 10:21:34;;;;;;;1.65;0.70;;;;;;;16.86;100.00;99594.88;5055268;28;20036;-79
2023/09/24 10:24:12;;;;;;;1.77;0.70;;;;;;;16.73;100.00;99588.94;5055740;28;20047;-80
2023/09/24 10:27:03;;;;;;;2.67;1.10;;;;;;;16.63;100.00;99576.81;5071924;28;20190;-80
2023/09/24 10:29:59;;;;;;;3.85;2.50;;;;;;;16.57;100.00;99572.38;5071464;28;20720;-80
2023/09/24 10:32:25;;;;;;;1.48;1.10;;;;;;;16.53;100.00;99556.81;5037920;28;20036;-79
2023/09/24 10:34:55;;;;;;;0.88;0.75;;;;;;;16.58;100.00;99546.03;5055207;28;20032;-80
2023/09/24 10:37:21;;;;;;;1.63;1.20;;;;;;;16.63;100.00;99538.81;5055232;28;20437;-82
2023/09/24 10:40:05;;;;;;;3.10;1.90;;;;;;;16.67;100.00;99525.56;5040217;28;20529;-81
2023/09/24 10:42:34;;;;;;;1.88;0.90;;;;;;;16.64;100.00;99526.88;5056968;28;20482;-79
2023/09/24 10:45:12;;;;;;;1.02;0.60;;;;;;;16.61;100.00;99534.69;5039865;28;20051;-79
2023/09/24 10:47:38;;;;;;;0.80;0.60;;;;;;;16.69;100.00;99548.69;5056716;28;20029;-78
2023/09/24 10:50:15;;;;;;;0.60;0.60;;;;;;;16.69;100.00;99537.81;5040265;28;20040;-78
2023/09/24 10:53:01;;;;;;;0.73;0.73;;;;;;;16.66;100.00;99532.88;5057492;28;20383;-80
2023/09/24 10:55:28;;;;;;;1.48;0.70;;;;;;;16.64;100.00;99540.44;5039896;28;20036;-82
2023/09/24 10:57:55;;;;;;;0.60;0.60;;;;;;;16.61;100.00;99534.69;5073425;28;20060;-79
2023/09/24 11:00:25;;;;;;;1.02;0.60;;;;;;;16.45;100.00;99525.47;5039337;28;20032;-77
2023/09/24 11:02:56;;;;;;;0.95;0.70;;;;;;;16.41;100.00;99525.16;5040415;28;20024;-77
2023/09/24 11:05:24;;;;;;;;;;;;;;;16.35;100.00;99536.94;5057697;28;20039;-78
2023/09/24 11:07:50;;;;;;;0.75;0.57;;;;;;;16.26;100.00;99544.66;5072496;28;19908;-79
2023/09/24 11:10:27;;;;;;;1.88;0.77;;;;;;;16.16;100.00;99533.63;5073196;28;20059;-79
2023/09/24 11:12:54;;;;;;;0.85;0.70;;;;;;;16.10;100.00;99515.63;5056500;28;20032;-81
2023/09/24 11:15:23;;;;;;;0.90;0.77;;;;;;;16.05;100.00;99488.41;5039925;28;20044;-79
2023/09/24 11:17:52;;;;;;;1.10;0.73;;;;;;;16.00;100.00;99494.56;5073087;28;20032;-79
2023/09/24 11:20:20;;;;;;;2.78;1.23;;;;;;;15.97;100.00;99496.94;5040420;28;20036;-79
2023/09/24 11:23:02;;;;;;;1.98;1.05;;;;;;;15.94;100.00;99497.41;5056558;28;20052;-80